Airfield :
LOGIN :

Register | Disclaimer

   EN    FR    IT 

 










Legend :    VFR   Marginal VFR   IFR   Intensive IFR   Very Intensive IFR
Visi :
Ceiling :
>= 8 km
>= 3000ft
5 to 8 km
1000 to 3000 ft
1500m to 5 km
500 to 1000 ft
800 to 1500m
200 to 500 ft
< 800m
< 200 ft
Symbols :   Thunderstorms  Fog  Heavy snow  Heavy precipitations  Wind > 20 kt
SIGMETs :     Misc.  Thunderstorms  Icing  Turbulence  Mountain Waves  Volcanic Ashes







- Airport Elevation : 408 ft
- IATA code : FKB


EDSB - Karlsruhe Baden Baden

CURRENT METAR :
  • 211750Z 20008KT 9999 FEW020 13/11 Q1018

EXPIRED METARs :
  • 211720Z 21010KT 9999 SCT022 13/11 Q1017
  • 211650Z 19012KT 9999 FEW012 SCT055 13/12 Q1017
  • 211620Z 19011KT 9999 FEW010 SCT054 BKN065 13/12 Q1016 RERA
  • 211550Z 24008KT 180V310 7000 RA FEW010 BKN043 13/12 Q1016
  • 211520Z 28012G26KT 240V320 7000 RA FEW013 BKN044 OVC051 15/12 Q1015

TAF TAF EDSB
Valid from the 21 at 18:00 until the 22 at 18:00 UTC


211700Z 2118/2218 22010KT CAVOK
BECMG 2122/2124 22005KT
BECMG 2209/2211 24010KT
No reported NOTAMs for that airfield.



MET'MAP, your aeronautical weather chart ! - Copyright ORBIFLY December 2007 - Disclaimer

ORBIFLY MET'MAP TEAM :

Programming & Development : Alexandra Zaïnal
Concept & Development : Baudouin d'Aumeries
Co-Development & Prog : Marc-Olivier Méhu
Technical & hardware support : Manuel Goepfert

Contact : metmap@orbifly.com




SOURCES & CREDITS :

   NOAA